sensor_id;sensor_type;location;lat;lon;timestamp;P1;durP1;ratioP1;P2;durP2;ratioP2
64643;SDS011;51056;50.330;7.914;2022-10-31T00:02:19;15.93;;;4.53;;
64643;SDS011;51056;50.330;7.914;2022-10-31T00:05:22;13.88;;;4.15;;
64643;SDS011;51056;50.330;7.914;2022-10-31T00:08:26;16.73;;;4.10;;
64643;SDS011;51056;50.330;7.914;2022-10-31T00:11:30;15.13;;;3.92;;
64643;SDS011;51056;50.330;7.914;2022-10-31T00:17:37;19.00;;;4.18;;
64643;SDS011;51056;50.330;7.914;2022-10-31T00:20:41;17.15;;;3.85;;
64643;SDS011;51056;50.330;7.914;2022-10-31T00:23:44;11.10;;;4.10;;
64643;SDS011;51056;50.330;7.914;2022-10-31T00:26:48;22.48;;;5.05;;
64643;SDS011;51056;50.330;7.914;2022-10-31T00:32:56;17.23;;;3.67;;
64643;SDS011;51056;50.330;7.914;2022-10-31T00:36:00;12.68;;;4.57;;
64643;SDS011;51056;50.330;7.914;2022-10-31T00:39:03;9.68;;;3.88;;
64643;SDS011;51056;50.330;7.914;2022-10-31T00:42:08;25.58;;;4.32;;
64643;SDS011;51056;50.330;7.914;2022-10-31T00:45:12;37.13;;;4.13;;
64643;SDS011;51056;50.330;7.914;2022-10-31T00:48:16;17.95;;;3.70;;
64643;SDS011;51056;50.330;7.914;2022-10-31T00:51:20;13.88;;;3.70;;
64643;SDS011;51056;50.330;7.914;2022-10-31T00:54:23;12.55;;;3.08;;
64643;SDS011;51056;50.330;7.914;2022-10-31T00:57:27;7.47;;;3.55;;
64643;SDS011;51056;50.330;7.914;2022-10-31T01:00:30;20.73;;;4.18;;
64643;SDS011;51056;50.330;7.914;2022-10-31T01:03:34;12.50;;;4.30;;
64643;SDS011;51056;50.330;7.914;2022-10-31T01:06:39;20.08;;;3.50;;
64643;SDS011;51056;50.330;7.914;2022-10-31T01:09:44;13.77;;;3.35;;
64643;SDS011;51056;50.330;7.914;2022-10-31T01:12:48;8.38;;;3.03;;
64643;SDS011;51056;50.330;7.914;2022-10-31T01:15:56;9.40;;;3.60;;
64643;SDS011;51056;50.330;7.914;2022-10-31T01:19:02;12.60;;;3.60;;
64643;SDS011;51056;50.330;7.914;2022-10-31T01:22:06;7.85;;;3.40;;
64643;SDS011;51056;50.330;7.914;2022-10-31T01:25:10;12.85;;;2.95;;
64643;SDS011;51056;50.330;7.914;2022-10-31T01:28:14;13.93;;;3.78;;
64643;SDS011;51056;50.330;7.914;2022-10-31T01:34:22;8.35;;;3.00;;
64643;SDS011;51056;50.330;7.914;2022-10-31T01:37:30;31.98;;;4.40;;
64643;SDS011;51056;50.330;7.914;2022-10-31T01:40:34;25.40;;;3.67;;
64643;SDS011;51056;50.330;7.914;2022-10-31T01:47:07;11.98;;;3.22;;
64643;SDS011;51056;50.330;7.914;2022-10-31T01:50:28;13.33;;;3.13;;
64643;SDS011;51056;50.330;7.914;2022-10-31T01:53:35;7.05;;;3.22;;
64643;SDS011;51056;50.330;7.914;2022-10-31T01:56:40;6.82;;;3.15;;
64643;SDS011;51056;50.330;7.914;2022-10-31T01:59:51;10.13;;;3.80;;
64643;SDS011;51056;50.330;7.914;2022-10-31T02:02:57;5.95;;;3.22;;
64643;SDS011;51056;50.330;7.914;2022-10-31T02:06:06;13.95;;;3.42;;
64643;SDS011;51056;50.330;7.914;2022-10-31T02:09:31;9.35;;;3.28;;
64643;SDS011;51056;50.330;7.914;2022-10-31T02:12:39;17.20;;;3.47;;
64643;SDS011;51056;50.330;7.914;2022-10-31T02:15:45;7.53;;;2.83;;
64643;SDS011;51056;50.330;7.914;2022-10-31T02:18:53;9.85;;;3.22;;
64643;SDS011;51056;50.330;7.914;2022-10-31T02:22:05;15.00;;;3.60;;
64643;SDS011;51056;50.330;7.914;2022-10-31T02:32:00;5.87;;;3.47;;
64643;SDS011;51056;50.330;7.914;2022-10-31T02:35:17;13.90;;;3.80;;
64643;SDS011;51056;50.330;7.914;2022-10-31T02:41:37;18.42;;;3.47;;
64643;SDS011;51056;50.330;7.914;2022-10-31T02:48:20;9.13;;;3.97;;
64643;SDS011;51056;50.330;7.914;2022-10-31T02:51:29;7.50;;;3.60;;
64643;SDS011;51056;50.330;7.914;2022-10-31T02:54:33;19.00;;;3.53;;
64643;SDS011;51056;50.330;7.914;2022-10-31T02:57:37;15.68;;;3.65;;
64643;SDS011;51056;50.330;7.914;2022-10-31T03:00:52;9.95;;;3.70;;
64643;SDS011;51056;50.330;7.914;2022-10-31T03:07:30;10.43;;;3.15;;
64643;SDS011;51056;50.330;7.914;2022-10-31T03:10:47;12.35;;;2.92;;
64643;SDS011;51056;50.330;7.914;2022-10-31T03:17:16;7.05;;;3.15;;
64643;SDS011;51056;50.330;7.914;2022-10-31T03:24:15;10.85;;;2.83;;
64643;SDS011;51056;50.330;7.914;2022-10-31T03:27:24;7.90;;;2.75;;
64643;SDS011;51056;50.330;7.914;2022-10-31T03:30:30;16.23;;;3.03;;
64643;SDS011;51056;50.330;7.914;2022-10-31T03:33:38;7.05;;;2.97;;
64643;SDS011;51056;50.330;7.914;2022-10-31T03:36:46;7.47;;;3.38;;
64643;SDS011;51056;50.330;7.914;2022-10-31T03:39:55;9.48;;;2.80;;
64643;SDS011;51056;50.330;7.914;2022-10-31T03:43:03;9.65;;;2.80;;
64643;SDS011;51056;50.330;7.914;2022-10-31T03:46:12;7.88;;;2.50;;
64643;SDS011;51056;50.330;7.914;2022-10-31T03:49:17;6.85;;;2.42;;
64643;SDS011;51056;50.330;7.914;2022-10-31T03:52:33;5.30;;;2.55;;
64643;SDS011;51056;50.330;7.914;2022-10-31T03:55:43;5.20;;;2.63;;
64643;SDS011;51056;50.330;7.914;2022-10-31T03:59:05;7.25;;;2.53;;
64643;SDS011;51056;50.330;7.914;2022-10-31T04:02:16;7.00;;;2.45;;
64643;SDS011;51056;50.330;7.914;2022-10-31T04:05:24;5.47;;;2.75;;
64643;SDS011;51056;50.330;7.914;2022-10-31T04:08:37;6.30;;;3.40;;
64643;SDS011;51056;50.330;7.914;2022-10-31T04:11:46;7.10;;;3.05;;
64643;SDS011;51056;50.330;7.914;2022-10-31T04:15:11;11.10;;;3.05;;
64643;SDS011;51056;50.330;7.914;2022-10-31T04:18:17;10.40;;;2.90;;
64643;SDS011;51056;50.330;7.914;2022-10-31T04:21:26;7.35;;;2.45;;
64643;SDS011;51056;50.330;7.914;2022-10-31T04:24:35;10.13;;;2.08;;
64643;SDS011;51056;50.330;7.914;2022-10-31T04:27:40;8.40;;;2.78;;
64643;SDS011;51056;50.330;7.914;2022-10-31T04:30:48;12.38;;;2.97;;
64643;SDS011;51056;50.330;7.914;2022-10-31T04:33:53;8.88;;;2.90;;
64643;SDS011;51056;50.330;7.914;2022-10-31T04:36:57;13.93;;;2.60;;
64643;SDS011;51056;50.330;7.914;2022-10-31T04:40:02;9.15;;;2.60;;
64643;SDS011;51056;50.330;7.914;2022-10-31T04:43:22;5.25;;;2.30;;
64643;SDS011;51056;50.330;7.914;2022-10-31T04:46:26;13.85;;;2.72;;
64643;SDS011;51056;50.330;7.914;2022-10-31T04:49:35;8.13;;;2.40;;
64643;SDS011;51056;50.330;7.914;2022-10-31T04:52:40;7.55;;;2.92;;
64643;SDS011;51056;50.330;7.914;2022-10-31T04:55:47;4.78;;;2.25;;
64643;SDS011;51056;50.330;7.914;2022-10-31T04:58:58;8.07;;;2.15;;
64643;SDS011;51056;50.330;7.914;2022-10-31T05:02:04;9.38;;;3.15;;
64643;SDS011;51056;50.330;7.914;2022-10-31T05:05:22;9.40;;;4.13;;
64643;SDS011;51056;50.330;7.914;2022-10-31T05:08:30;14.80;;;3.50;;
64643;SDS011;51056;50.330;7.914;2022-10-31T05:11:39;4.95;;;2.67;;
64643;SDS011;51056;50.330;7.914;2022-10-31T05:15:21;9.98;;;3.42;;
64643;SDS011;51056;50.330;7.914;2022-10-31T05:18:45;12.60;;;2.95;;
64643;SDS011;51056;50.330;7.914;2022-10-31T05:22:15;9.00;;;2.70;;
64643;SDS011;51056;50.330;7.914;2022-10-31T05:25:20;7.43;;;2.95;;
64643;SDS011;51056;50.330;7.914;2022-10-31T05:28:26;9.20;;;3.65;;
64643;SDS011;51056;50.330;7.914;2022-10-31T05:31:32;9.32;;;2.40;;
64643;SDS011;51056;50.330;7.914;2022-10-31T05:34:38;4.78;;;2.10;;
64643;SDS011;51056;50.330;7.914;2022-10-31T05:38:00;9.73;;;2.78;;
64643;SDS011;51056;50.330;7.914;2022-10-31T05:41:04;9.60;;;2.55;;
64643;SDS011;51056;50.330;7.914;2022-10-31T05:44:09;8.45;;;2.50;;
64643;SDS011;51056;50.330;7.914;2022-10-31T05:47:26;8.80;;;2.65;;
64643;SDS011;51056;50.330;7.914;2022-10-31T05:50:32;8.63;;;2.60;;
64643;SDS011;51056;50.330;7.914;2022-10-31T05:53:45;10.20;;;2.65;;
64643;SDS011;51056;50.330;7.914;2022-10-31T05:56:50;9.68;;;2.90;;
64643;SDS011;51056;50.330;7.914;2022-10-31T05:59:54;12.27;;;4.03;;
64643;SDS011;51056;50.330;7.914;2022-10-31T06:02:59;11.25;;;3.03;;
64643;SDS011;51056;50.330;7.914;2022-10-31T06:06:25;13.02;;;3.75;;
64643;SDS011;51056;50.330;7.914;2022-10-31T06:09:30;9.10;;;3.72;;
64643;SDS011;51056;50.330;7.914;2022-10-31T06:12:34;9.23;;;3.90;;
64643;SDS011;51056;50.330;7.914;2022-10-31T06:16:08;16.77;;;4.32;;
64643;SDS011;51056;50.330;7.914;2022-10-31T06:19:14;19.33;;;5.13;;
64643;SDS011;51056;50.330;7.914;2022-10-31T06:22:18;27.13;;;3.85;;
64643;SDS011;51056;50.330;7.914;2022-10-31T06:25:22;30.48;;;3.92;;
64643;SDS011;51056;50.330;7.914;2022-10-31T06:28:26;15.57;;;3.90;;
64643;SDS011;51056;50.330;7.914;2022-10-31T06:31:36;21.52;;;4.40;;
64643;SDS011;51056;50.330;7.914;2022-10-31T06:34:57;11.38;;;3.58;;
64643;SDS011;51056;50.330;7.914;2022-10-31T06:38:01;51.40;;;5.15;;
64643;SDS011;51056;50.330;7.914;2022-10-31T06:41:26;68.15;;;4.95;;
64643;SDS011;51056;50.330;7.914;2022-10-31T06:44:30;32.08;;;4.15;;
64643;SDS011;51056;50.330;7.914;2022-10-31T06:51:13;14.18;;;3.90;;
64643;SDS011;51056;50.330;7.914;2022-10-31T06:54:20;42.63;;;4.88;;
64643;SDS011;51056;50.330;7.914;2022-10-31T06:57:24;13.48;;;4.20;;
64643;SDS011;51056;50.330;7.914;2022-10-31T07:03:40;19.75;;;4.88;;
64643;SDS011;51056;50.330;7.914;2022-10-31T07:06:44;18.58;;;4.20;;
64643;SDS011;51056;50.330;7.914;2022-10-31T07:09:48;17.52;;;4.15;;
64643;SDS011;51056;50.330;7.914;2022-10-31T07:12:58;19.27;;;5.38;;
64643;SDS011;51056;50.330;7.914;2022-10-31T07:16:05;13.65;;;3.80;;
64643;SDS011;51056;50.330;7.914;2022-10-31T07:19:16;24.20;;;4.70;;
64643;SDS011;51056;50.330;7.914;2022-10-31T07:22:21;14.73;;;4.43;;
64643;SDS011;51056;50.330;7.914;2022-10-31T07:25:25;7.25;;;3.55;;
64643;SDS011;51056;50.330;7.914;2022-10-31T07:28:38;9.52;;;4.03;;
64643;SDS011;51056;50.330;7.914;2022-10-31T07:31:45;8.95;;;3.95;;
64643;SDS011;51056;50.330;7.914;2022-10-31T07:34:56;14.13;;;6.30;;
64643;SDS011;51056;50.330;7.914;2022-10-31T07:38:09;13.95;;;7.53;;
64643;SDS011;51056;50.330;7.914;2022-10-31T07:41:15;17.80;;;11.70;;
64643;SDS011;51056;50.330;7.914;2022-10-31T07:44:21;16.27;;;8.85;;
64643;SDS011;51056;50.330;7.914;2022-10-31T07:47:49;10.15;;;4.68;;
64643;SDS011;51056;50.330;7.914;2022-10-31T07:51:13;7.05;;;4.32;;
64643;SDS011;51056;50.330;7.914;2022-10-31T07:54:53;5.72;;;5.07;;
64643;SDS011;51056;50.330;7.914;2022-10-31T07:58:00;7.70;;;3.80;;
64643;SDS011;51056;50.330;7.914;2022-10-31T08:01:06;4.30;;;3.25;;
64643;SDS011;51056;50.330;7.914;2022-10-31T08:04:17;6.00;;;4.38;;
64643;SDS011;51056;50.330;7.914;2022-10-31T08:07:39;7.72;;;3.72;;
64643;SDS011;51056;50.330;7.914;2022-10-31T08:11:14;7.90;;;4.78;;
64643;SDS011;51056;50.330;7.914;2022-10-31T08:14:20;7.85;;;5.78;;
64643;SDS011;51056;50.330;7.914;2022-10-31T08:17:27;7.57;;;5.60;;
64643;SDS011;51056;50.330;7.914;2022-10-31T08:20:34;18.77;;;4.63;;
64643;SDS011;51056;50.330;7.914;2022-10-31T08:23:39;5.22;;;3.47;;
64643;SDS011;51056;50.330;7.914;2022-10-31T08:29:47;6.13;;;4.68;;
64643;SDS011;51056;50.330;7.914;2022-10-31T08:36:29;8.80;;;3.33;;
64643;SDS011;51056;50.330;7.914;2022-10-31T08:40:01;4.78;;;3.42;;
64643;SDS011;51056;50.330;7.914;2022-10-31T08:43:11;10.35;;;7.20;;
64643;SDS011;51056;50.330;7.914;2022-10-31T08:46:20;7.75;;;3.55;;
64643;SDS011;51056;50.330;7.914;2022-10-31T08:49:25;8.20;;;3.65;;
64643;SDS011;51056;50.330;7.914;2022-10-31T08:52:28;5.68;;;3.45;;
64643;SDS011;51056;50.330;7.914;2022-10-31T08:55:39;7.80;;;3.78;;
64643;SDS011;51056;50.330;7.914;2022-10-31T08:58:58;6.13;;;3.08;;
64643;SDS011;51056;50.330;7.914;2022-10-31T09:02:41;5.82;;;3.25;;
64643;SDS011;51056;50.330;7.914;2022-10-31T09:05:45;5.57;;;3.65;;
64643;SDS011;51056;50.330;7.914;2022-10-31T09:08:49;4.80;;;3.30;;
64643;SDS011;51056;50.330;7.914;2022-10-31T09:11:53;5.32;;;3.65;;
64643;SDS011;51056;50.330;7.914;2022-10-31T09:19:01;5.78;;;3.13;;
64643;SDS011;51056;50.330;7.914;2022-10-31T09:22:19;5.32;;;2.95;;
64643;SDS011;51056;50.330;7.914;2022-10-31T09:25:26;10.50;;;8.30;;
64643;SDS011;51056;50.330;7.914;2022-10-31T09:29:03;5.90;;;4.28;;
64643;SDS011;51056;50.330;7.914;2022-10-31T09:32:08;7.15;;;4.50;;
64643;SDS011;51056;50.330;7.914;2022-10-31T09:35:42;13.25;;;9.75;;
64643;SDS011;51056;50.330;7.914;2022-10-31T09:38:45;6.72;;;4.30;;
64643;SDS011;51056;50.330;7.914;2022-10-31T09:42:02;6.05;;;4.63;;
64643;SDS011;51056;50.330;7.914;2022-10-31T09:55:27;4.80;;;3.58;;
64643;SDS011;51056;50.330;7.914;2022-10-31T09:58:40;4.03;;;3.10;;
64643;SDS011;51056;50.330;7.914;2022-10-31T10:01:48;7.20;;;3.58;;
64643;SDS011;51056;50.330;7.914;2022-10-31T10:04:59;5.57;;;3.38;;
64643;SDS011;51056;50.330;7.914;2022-10-31T10:08:18;4.63;;;3.90;;
64643;SDS011;51056;50.330;7.914;2022-10-31T10:22:15;6.57;;;3.80;;
64643;SDS011;51056;50.330;7.914;2022-10-31T10:25:38;6.35;;;4.22;;
64643;SDS011;51056;50.330;7.914;2022-10-31T10:28:57;7.32;;;4.80;;
64643;SDS011;51056;50.330;7.914;2022-10-31T10:32:08;8.20;;;4.70;;
64643;SDS011;51056;50.330;7.914;2022-10-31T10:38:53;11.25;;;5.70;;
64643;SDS011;51056;50.330;7.914;2022-10-31T10:42:07;10.35;;;4.70;;
64643;SDS011;51056;50.330;7.914;2022-10-31T10:45:36;6.90;;;3.97;;
64643;SDS011;51056;50.330;7.914;2022-10-31T10:49:16;8.93;;;5.30;;
64643;SDS011;51056;50.330;7.914;2022-10-31T10:52:37;10.25;;;4.47;;
64643;SDS011;51056;50.330;7.914;2022-10-31T10:56:07;8.43;;;4.45;;
64643;SDS011;51056;50.330;7.914;2022-10-31T10:59:18;9.52;;;4.85;;
64643;SDS011;51056;50.330;7.914;2022-10-31T11:02:25;14.85;;;6.13;;
64643;SDS011;51056;50.330;7.914;2022-10-31T11:08:41;15.32;;;6.03;;
64643;SDS011;51056;50.330;7.914;2022-10-31T11:11:52;7.88;;;6.18;;
64643;SDS011;51056;50.330;7.914;2022-10-31T11:14:59;11.23;;;6.43;;
64643;SDS011;51056;50.330;7.914;2022-10-31T11:18:26;14.30;;;6.47;;
64643;SDS011;51056;50.330;7.914;2022-10-31T11:21:33;11.35;;;6.03;;
64643;SDS011;51056;50.330;7.914;2022-10-31T11:24:41;13.68;;;6.28;;
64643;SDS011;51056;50.330;7.914;2022-10-31T11:27:47;13.38;;;6.28;;
64643;SDS011;51056;50.330;7.914;2022-10-31T11:31:13;11.63;;;6.32;;
64643;SDS011;51056;50.330;7.914;2022-10-31T11:34:42;15.98;;;6.60;;
64643;SDS011;51056;50.330;7.914;2022-10-31T11:38:02;13.85;;;7.03;;
64643;SDS011;51056;50.330;7.914;2022-10-31T11:41:59;13.90;;;6.18;;
64643;SDS011;51056;50.330;7.914;2022-10-31T11:45:07;13.95;;;6.47;;
64643;SDS011;51056;50.330;7.914;2022-10-31T11:48:17;11.35;;;6.70;;
64643;SDS011;51056;50.330;7.914;2022-10-31T11:51:28;11.43;;;7.13;;
64643;SDS011;51056;50.330;7.914;2022-10-31T11:54:46;16.50;;;6.82;;
64643;SDS011;51056;50.330;7.914;2022-10-31T11:57:56;11.18;;;6.70;;
64643;SDS011;51056;50.330;7.914;2022-10-31T12:01:24;14.45;;;5.88;;
64643;SDS011;51056;50.330;7.914;2022-10-31T12:04:44;14.18;;;6.53;;
64643;SDS011;51056;50.330;7.914;2022-10-31T12:08:29;16.52;;;6.97;;
64643;SDS011;51056;50.330;7.914;2022-10-31T12:11:43;9.85;;;6.25;;
64643;SDS011;51056;50.330;7.914;2022-10-31T12:18:46;12.75;;;6.72;;
64643;SDS011;51056;50.330;7.914;2022-10-31T12:29:12;10.23;;;6.40;;
64643;SDS011;51056;50.330;7.914;2022-10-31T12:46:04;14.40;;;7.15;;
64643;SDS011;51056;50.330;7.914;2022-10-31T12:59:31;10.15;;;5.88;;
64643;SDS011;51056;50.330;7.914;2022-10-31T13:06:51;17.13;;;6.80;;
64643;SDS011;51056;50.330;7.914;2022-10-31T13:10:02;16.20;;;6.70;;
64643;SDS011;51056;50.330;7.914;2022-10-31T13:16:45;13.32;;;6.22;;
64643;SDS011;51056;50.330;7.914;2022-10-31T13:19:50;12.32;;;7.25;;
64643;SDS011;51056;50.330;7.914;2022-10-31T13:26:33;14.65;;;6.35;;
64643;SDS011;51056;50.330;7.914;2022-10-31T13:29:50;12.88;;;6.55;;
64643;SDS011;51056;50.330;7.914;2022-10-31T13:33:23;9.65;;;5.72;;
64643;SDS011;51056;50.330;7.914;2022-10-31T13:36:45;15.38;;;7.15;;
64643;SDS011;51056;50.330;7.914;2022-10-31T13:47:28;15.73;;;6.38;;
64643;SDS011;51056;50.330;7.914;2022-10-31T13:50:33;14.60;;;6.72;;
64643;SDS011;51056;50.330;7.914;2022-10-31T13:53:55;10.80;;;5.90;;
64643;SDS011;51056;50.330;7.914;2022-10-31T13:57:01;25.50;;;7.72;;
64643;SDS011;51056;50.330;7.914;2022-10-31T14:03:24;11.93;;;6.80;;
64643;SDS011;51056;50.330;7.914;2022-10-31T14:13:55;15.40;;;6.40;;
64643;SDS011;51056;50.330;7.914;2022-10-31T14:17:01;15.05;;;6.20;;
64643;SDS011;51056;50.330;7.914;2022-10-31T14:26:50;17.25;;;6.47;;
64643;SDS011;51056;50.330;7.914;2022-10-31T14:30:21;14.77;;;5.97;;
64643;SDS011;51056;50.330;7.914;2022-10-31T14:33:27;11.07;;;5.80;;
64643;SDS011;51056;50.330;7.914;2022-10-31T14:53:20;9.87;;;5.73;;
64643;SDS011;51056;50.330;7.914;2022-10-31T14:56:31;10.82;;;5.70;;
64643;SDS011;51056;50.330;7.914;2022-10-31T14:59:46;14.07;;;5.25;;
64643;SDS011;51056;50.330;7.914;2022-10-31T15:06:18;11.60;;;5.32;;
64643;SDS011;51056;50.330;7.914;2022-10-31T15:09:30;16.75;;;5.55;;
64643;SDS011;51056;50.330;7.914;2022-10-31T15:12:37;12.70;;;5.60;;
64643;SDS011;51056;50.330;7.914;2022-10-31T15:15:41;19.90;;;6.85;;
64643;SDS011;51056;50.330;7.914;2022-10-31T15:18:47;14.52;;;6.95;;
64643;SDS011;51056;50.330;7.914;2022-10-31T15:21:58;13.73;;;6.55;;
64643;SDS011;51056;50.330;7.914;2022-10-31T15:25:12;13.73;;;6.05;;
64643;SDS011;51056;50.330;7.914;2022-10-31T15:28:26;16.15;;;6.50;;
64643;SDS011;51056;50.330;7.914;2022-10-31T15:31:33;15.55;;;7.72;;
64643;SDS011;51056;50.330;7.914;2022-10-31T15:34:41;16.40;;;8.05;;
64643;SDS011;51056;50.330;7.914;2022-10-31T15:37:49;24.60;;;6.47;;
64643;SDS011;51056;50.330;7.914;2022-10-31T15:41:04;14.02;;;6.00;;
64643;SDS011;51056;50.330;7.914;2022-10-31T15:44:30;13.70;;;7.47;;
64643;SDS011;51056;50.330;7.914;2022-10-31T15:47:38;18.55;;;6.03;;
64643;SDS011;51056;50.330;7.914;2022-10-31T15:50:53;10.52;;;5.55;;
64643;SDS011;51056;50.330;7.914;2022-10-31T15:54:01;13.93;;;6.85;;
64643;SDS011;51056;50.330;7.914;2022-10-31T15:57:09;15.38;;;8.38;;
64643;SDS011;51056;50.330;7.914;2022-10-31T16:00:24;22.25;;;9.25;;
64643;SDS011;51056;50.330;7.914;2022-10-31T16:03:31;15.63;;;6.00;;
64643;SDS011;51056;50.330;7.914;2022-10-31T16:06:40;14.38;;;7.18;;
64643;SDS011;51056;50.330;7.914;2022-10-31T16:12:55;15.65;;;7.53;;
64643;SDS011;51056;50.330;7.914;2022-10-31T16:16:02;36.33;;;22.23;;
64643;SDS011;51056;50.330;7.914;2022-10-31T16:19:33;29.25;;;17.42;;
64643;SDS011;51056;50.330;7.914;2022-10-31T16:22:40;29.20;;;17.52;;
64643;SDS011;51056;50.330;7.914;2022-10-31T16:25:46;20.95;;;13.88;;
64643;SDS011;51056;50.330;7.914;2022-10-31T16:28:55;12.30;;;6.43;;
64643;SDS011;51056;50.330;7.914;2022-10-31T16:53:02;14.27;;;6.55;;
64643;SDS011;51056;50.330;7.914;2022-10-31T16:56:17;11.77;;;7.60;;
64643;SDS011;51056;50.330;7.914;2022-10-31T16:59:30;16.25;;;6.68;;
64643;SDS011;51056;50.330;7.914;2022-10-31T17:02:38;13.07;;;6.50;;
64643;SDS011;51056;50.330;7.914;2022-10-31T17:05:47;13.70;;;7.97;;
64643;SDS011;51056;50.330;7.914;2022-10-31T17:08:53;19.65;;;8.18;;
64643;SDS011;51056;50.330;7.914;2022-10-31T17:11:59;17.30;;;8.75;;
64643;SDS011;51056;50.330;7.914;2022-10-31T17:15:05;11.77;;;6.78;;
64643;SDS011;51056;50.330;7.914;2022-10-31T17:18:18;13.38;;;6.78;;
64643;SDS011;51056;50.330;7.914;2022-10-31T17:21:25;15.40;;;9.15;;
64643;SDS011;51056;50.330;7.914;2022-10-31T17:24:31;16.75;;;7.68;;
64643;SDS011;51056;50.330;7.914;2022-10-31T17:27:37;12.75;;;7.15;;
64643;SDS011;51056;50.330;7.914;2022-10-31T17:30:43;14.50;;;6.43;;
64643;SDS011;51056;50.330;7.914;2022-10-31T17:33:49;12.68;;;7.95;;
64643;SDS011;51056;50.330;7.914;2022-10-31T17:36:55;15.50;;;8.63;;
64643;SDS011;51056;50.330;7.914;2022-10-31T17:40:00;10.55;;;6.68;;
64643;SDS011;51056;50.330;7.914;2022-10-31T17:43:07;14.95;;;6.85;;
64643;SDS011;51056;50.330;7.914;2022-10-31T17:46:15;17.20;;;8.88;;
64643;SDS011;51056;50.330;7.914;2022-10-31T17:49:21;11.90;;;6.57;;
64643;SDS011;51056;50.330;7.914;2022-10-31T17:52:26;13.52;;;5.82;;
64643;SDS011;51056;50.330;7.914;2022-10-31T17:55:32;18.40;;;7.90;;
64643;SDS011;51056;50.330;7.914;2022-10-31T17:58:39;13.88;;;6.93;;
64643;SDS011;51056;50.330;7.914;2022-10-31T18:01:46;14.57;;;5.60;;
64643;SDS011;51056;50.330;7.914;2022-10-31T18:04:55;11.88;;;6.63;;
64643;SDS011;51056;50.330;7.914;2022-10-31T18:08:01;11.93;;;7.05;;
64643;SDS011;51056;50.330;7.914;2022-10-31T18:11:10;19.98;;;15.43;;
64643;SDS011;51056;50.330;7.914;2022-10-31T18:14:26;23.20;;;14.82;;
64643;SDS011;51056;50.330;7.914;2022-10-31T18:17:32;22.90;;;15.48;;
64643;SDS011;51056;50.330;7.914;2022-10-31T18:20:37;30.20;;;16.83;;
64643;SDS011;51056;50.330;7.914;2022-10-31T18:23:44;36.90;;;21.08;;
64643;SDS011;51056;50.330;7.914;2022-10-31T18:26:51;20.98;;;12.45;;
64643;SDS011;51056;50.330;7.914;2022-10-31T18:29:56;25.48;;;12.05;;
64643;SDS011;51056;50.330;7.914;2022-10-31T18:33:03;23.27;;;11.73;;
64643;SDS011;51056;50.330;7.914;2022-10-31T18:36:10;21.85;;;13.25;;
64643;SDS011;51056;50.330;7.914;2022-10-31T18:39:16;27.80;;;13.15;;
64643;SDS011;51056;50.330;7.914;2022-10-31T18:42:24;20.55;;;11.95;;
64643;SDS011;51056;50.330;7.914;2022-10-31T18:45:30;19.20;;;13.48;;
64643;SDS011;51056;50.330;7.914;2022-10-31T18:48:39;19.67;;;9.20;;
64643;SDS011;51056;50.330;7.914;2022-10-31T18:51:46;17.05;;;8.45;;
64643;SDS011;51056;50.330;7.914;2022-10-31T18:54:53;10.98;;;7.03;;
64643;SDS011;51056;50.330;7.914;2022-10-31T18:58:03;16.25;;;5.90;;
64643;SDS011;51056;50.330;7.914;2022-10-31T19:01:10;19.63;;;10.63;;
64643;SDS011;51056;50.330;7.914;2022-10-31T19:04:16;19.05;;;9.52;;
64643;SDS011;51056;50.330;7.914;2022-10-31T19:07:22;17.65;;;9.77;;
64643;SDS011;51056;50.330;7.914;2022-10-31T19:10:29;13.40;;;8.43;;
64643;SDS011;51056;50.330;7.914;2022-10-31T19:13:35;15.73;;;7.97;;
64643;SDS011;51056;50.330;7.914;2022-10-31T19:16:41;11.98;;;8.20;;
64643;SDS011;51056;50.330;7.914;2022-10-31T19:19:47;17.08;;;8.00;;
64643;SDS011;51056;50.330;7.914;2022-10-31T19:22:51;12.00;;;6.70;;
64643;SDS011;51056;50.330;7.914;2022-10-31T19:26:00;30.33;;;21.88;;
64643;SDS011;51056;50.330;7.914;2022-10-31T19:29:06;26.98;;;14.48;;
64643;SDS011;51056;50.330;7.914;2022-10-31T19:32:12;28.98;;;18.27;;
64643;SDS011;51056;50.330;7.914;2022-10-31T19:35:19;20.65;;;12.32;;
64643;SDS011;51056;50.330;7.914;2022-10-31T19:38:25;20.38;;;11.38;;
64643;SDS011;51056;50.330;7.914;2022-10-31T19:41:31;18.73;;;9.57;;
64643;SDS011;51056;50.330;7.914;2022-10-31T19:44:39;13.38;;;7.07;;
64643;SDS011;51056;50.330;7.914;2022-10-31T19:47:46;16.83;;;8.93;;
64643;SDS011;51056;50.330;7.914;2022-10-31T19:50:52;18.90;;;7.07;;
64643;SDS011;51056;50.330;7.914;2022-10-31T19:54:05;20.98;;;6.95;;
64643;SDS011;51056;50.330;7.914;2022-10-31T19:57:11;20.65;;;10.13;;
64643;SDS011;51056;50.330;7.914;2022-10-31T20:00:17;15.82;;;6.35;;
64643;SDS011;51056;50.330;7.914;2022-10-31T20:03:23;15.02;;;6.15;;
64643;SDS011;51056;50.330;7.914;2022-10-31T20:06:29;19.65;;;6.90;;
64643;SDS011;51056;50.330;7.914;2022-10-31T20:09:37;16.13;;;7.90;;
64643;SDS011;51056;50.330;7.914;2022-10-31T20:12:43;15.70;;;8.45;;
64643;SDS011;51056;50.330;7.914;2022-10-31T20:15:49;13.18;;;7.30;;
64643;SDS011;51056;50.330;7.914;2022-10-31T20:18:57;15.48;;;7.65;;
64643;SDS011;51056;50.330;7.914;2022-10-31T20:22:03;20.08;;;7.38;;
64643;SDS011;51056;50.330;7.914;2022-10-31T20:25:12;25.73;;;9.43;;
64643;SDS011;51056;50.330;7.914;2022-10-31T20:28:28;22.08;;;7.18;;
64643;SDS011;51056;50.330;7.914;2022-10-31T20:31:40;27.08;;;9.38;;
64643;SDS011;51056;50.330;7.914;2022-10-31T20:34:49;58.95;;;10.02;;
64643;SDS011;51056;50.330;7.914;2022-10-31T20:37:56;31.23;;;8.15;;
64643;SDS011;51056;50.330;7.914;2022-10-31T20:41:06;43.95;;;9.57;;
64643;SDS011;51056;50.330;7.914;2022-10-31T20:44:14;26.90;;;10.23;;
64643;SDS011;51056;50.330;7.914;2022-10-31T20:47:21;31.67;;;10.90;;
64643;SDS011;51056;50.330;7.914;2022-10-31T20:50:28;35.53;;;9.90;;
64643;SDS011;51056;50.330;7.914;2022-10-31T20:53:35;22.58;;;10.75;;
64643;SDS011;51056;50.330;7.914;2022-10-31T20:56:43;23.30;;;10.93;;
64643;SDS011;51056;50.330;7.914;2022-10-31T20:59:51;57.70;;;10.18;;
64643;SDS011;51056;50.330;7.914;2022-10-31T21:02:56;45.55;;;10.27;;
64643;SDS011;51056;50.330;7.914;2022-10-31T21:06:05;19.80;;;11.48;;
64643;SDS011;51056;50.330;7.914;2022-10-31T21:09:15;29.08;;;10.80;;
64643;SDS011;51056;50.330;7.914;2022-10-31T21:12:22;28.42;;;13.20;;
64643;SDS011;51056;50.330;7.914;2022-10-31T21:15:30;24.92;;;10.55;;
64643;SDS011;51056;50.330;7.914;2022-10-31T21:18:37;18.52;;;10.77;;
64643;SDS011;51056;50.330;7.914;2022-10-31T21:21:45;43.20;;;9.43;;
64643;SDS011;51056;50.330;7.914;2022-10-31T21:24:52;25.67;;;8.18;;
64643;SDS011;51056;50.330;7.914;2022-10-31T21:27:59;40.10;;;8.80;;
64643;SDS011;51056;50.330;7.914;2022-10-31T21:31:10;38.25;;;13.20;;
64643;SDS011;51056;50.330;7.914;2022-10-31T21:34:19;17.90;;;8.38;;
64643;SDS011;51056;50.330;7.914;2022-10-31T21:37:25;22.25;;;7.95;;
64643;SDS011;51056;50.330;7.914;2022-10-31T21:40:31;15.52;;;7.07;;
64643;SDS011;51056;50.330;7.914;2022-10-31T21:43:43;23.15;;;6.90;;
64643;SDS011;51056;50.330;7.914;2022-10-31T21:46:52;24.40;;;6.97;;
64643;SDS011;51056;50.330;7.914;2022-10-31T21:50:00;25.27;;;6.70;;
64643;SDS011;51056;50.330;7.914;2022-10-31T21:58:17;21.52;;;6.97;;
64643;SDS011;51056;50.330;7.914;2022-10-31T22:01:21;11.52;;;6.65;;
64643;SDS011;51056;50.330;7.914;2022-10-31T22:04:27;16.92;;;7.57;;
64643;SDS011;51056;50.330;7.914;2022-10-31T22:07:35;22.63;;;7.45;;
64643;SDS011;51056;50.330;7.914;2022-10-31T22:10:38;18.73;;;7.10;;
64643;SDS011;51056;50.330;7.914;2022-10-31T22:13:44;13.65;;;7.28;;